createdAt,value
2022-12-18T00:00:10.639Z,12.30
2022-12-18T00:02:51.525Z,12.57
2022-12-18T00:05:19.836Z,11.63
2022-12-18T00:07:50.942Z,12.93
2022-12-18T00:10:19.244Z,12.63
2022-12-18T00:12:48.495Z,13.20
2022-12-18T00:15:16.732Z,11.93
2022-12-18T00:17:44.883Z,10.00
2022-12-18T00:20:14.442Z,12.70
2022-12-18T00:22:42.595Z,11.33
2022-12-18T00:25:10.946Z,10.53
2022-12-18T00:27:39.092Z,10.27
2022-12-18T00:30:08.306Z,13.23
2022-12-18T00:32:38.056Z,11.03
2022-12-18T00:35:07.036Z,11.43
2022-12-18T00:37:37.026Z,11.00
2022-12-18T00:40:07.521Z,9.50
2022-12-18T00:42:52.949Z,11.17
2022-12-18T00:45:21.202Z,9.33
2022-12-18T00:47:49.501Z,10.00
2022-12-18T00:50:17.922Z,9.80
2022-12-18T00:52:47.511Z,9.90
2022-12-18T00:55:17.168Z,10.70
2022-12-18T00:57:45.884Z,9.80
2022-12-18T01:00:16.661Z,8.10
2022-12-18T01:02:45.092Z,12.07
2022-12-18T01:05:15.273Z,10.50
2022-12-18T01:07:43.614Z,9.27
2022-12-18T01:10:14.667Z,8.80
2022-12-18T01:12:42.935Z,8.97
2022-12-18T01:15:14.755Z,8.07
2022-12-18T01:17:43.497Z,10.40
2022-12-18T01:20:14.144Z,9.20
2022-12-18T01:22:42.453Z,10.17
2022-12-18T01:25:10.875Z,11.60
2022-12-18T01:27:40.393Z,10.20
2022-12-18T01:30:09.706Z,9.13
2022-12-18T01:32:37.850Z,10.80
2022-12-18T01:35:07.019Z,9.63
2022-12-18T01:37:35.287Z,12.20
2022-12-18T01:40:03.493Z,13.60
2022-12-18T01:42:31.674Z,11.30
2022-12-18T01:45:24.550Z,10.83
2022-12-18T01:47:58.241Z,11.53
2022-12-18T01:50:30.474Z,10.07
2022-12-18T01:53:01.976Z,12.50
2022-12-18T01:55:32.909Z,11.40
2022-12-18T01:58:03.100Z,12.30
2022-12-18T02:00:32.883Z,10.00
2022-12-18T02:03:01.818Z,10.63
2022-12-18T02:05:42.121Z,10.70
2022-12-18T02:08:14.258Z,11.00
2022-12-18T02:10:50.268Z,13.17
2022-12-18T02:13:24.057Z,9.43
2022-12-18T02:16:04.028Z,12.50
2022-12-18T02:18:36.604Z,10.80
2022-12-18T02:21:14.602Z,12.87
2022-12-18T02:23:52.473Z,10.87
2022-12-18T02:26:29.499Z,11.83
2022-12-18T02:29:04.202Z,11.57
2022-12-18T02:31:37.712Z,11.73
2022-12-18T02:34:08.774Z,11.00
2022-12-18T02:36:43.201Z,10.73
2022-12-18T02:39:15.145Z,11.80
2022-12-18T02:41:55.471Z,10.67
2022-12-18T02:44:25.818Z,12.00
2022-12-18T02:46:56.417Z,7.87
2022-12-18T02:49:33.075Z,10.03
2022-12-18T02:52:14.545Z,12.37
2022-12-18T02:54:57.379Z,10.53
2022-12-18T02:57:35.793Z,11.30
2022-12-18T03:00:10.577Z,12.67
2022-12-18T03:02:44.902Z,9.93
2022-12-18T03:05:17.110Z,14.70
2022-12-18T03:07:51.005Z,13.37
2022-12-18T03:10:26.467Z,10.97
2022-12-18T03:13:02.568Z,9.70
2022-12-18T03:15:36.130Z,12.23
2022-12-18T03:18:15.418Z,12.17
2022-12-18T03:20:46.370Z,10.67
2022-12-18T03:23:25.553Z,10.33
2022-12-18T03:26:03.135Z,10.57
2022-12-18T03:28:46.091Z,9.73
2022-12-18T03:31:16.487Z,12.47
2022-12-18T03:33:52.919Z,11.10
2022-12-18T03:36:26.826Z,12.50
2022-12-18T03:38:57.592Z,10.70
2022-12-18T03:41:32.657Z,10.10
2022-12-18T03:44:28.874Z,12.63
2022-12-18T03:47:04.103Z,11.43
2022-12-18T03:49:40.754Z,13.20
2022-12-18T03:52:13.051Z,10.50
2022-12-18T03:54:43.441Z,12.90
2022-12-18T03:57:18.947Z,12.57
2022-12-18T03:59:51.440Z,11.70
2022-12-18T04:02:23.463Z,9.50
2022-12-18T04:04:59.878Z,9.10
2022-12-18T04:07:31.654Z,11.00
2022-12-18T04:10:02.900Z,11.80
2022-12-18T04:12:32.752Z,10.30
2022-12-18T04:15:02.773Z,9.20
2022-12-18T04:17:31.226Z,8.47
2022-12-18T04:19:59.797Z,10.40
2022-12-18T04:22:28.060Z,10.47
2022-12-18T04:25:01.214Z,13.10
2022-12-18T04:27:37.043Z,8.90
2022-12-18T04:30:09.347Z,8.40
2022-12-18T04:32:37.687Z,8.60
2022-12-18T04:35:09.441Z,11.50
2022-12-18T04:37:37.718Z,10.50
2022-12-18T04:40:07.898Z,10.47
2022-12-18T04:42:42.223Z,9.77
2022-12-18T04:45:12.274Z,11.77
2022-12-18T04:47:40.444Z,12.33
2022-12-18T04:50:09.517Z,9.63
2022-12-18T04:52:39.006Z,8.40
2022-12-18T04:55:07.709Z,11.90
2022-12-18T04:57:38.607Z,11.63
2022-12-18T05:00:12.177Z,9.73
2022-12-18T05:02:42.418Z,9.60
2022-12-18T05:05:11.320Z,9.10
2022-12-18T05:07:42.284Z,9.00
2022-12-18T05:10:11.863Z,8.33
2022-12-18T05:12:58.939Z,9.57
2022-12-18T05:15:36.436Z,9.37
2022-12-18T05:18:05.953Z,9.07
2022-12-18T05:20:36.568Z,9.60
2022-12-18T05:23:06.287Z,9.33
2022-12-18T05:25:37.113Z,8.20
2022-12-18T05:28:06.535Z,7.17
2022-12-18T05:30:36.555Z,8.17
2022-12-18T05:33:05.383Z,8.17
2022-12-18T05:35:40.573Z,39.50
2022-12-18T05:38:08.874Z,76.27
2022-12-18T05:40:37.615Z,75.53
2022-12-18T05:43:07.171Z,86.00
2022-12-18T05:45:39.147Z,45.33
2022-12-18T05:48:14.268Z,27.33
2022-12-18T05:50:44.928Z,14.53
2022-12-18T05:53:16.566Z,10.43
2022-12-18T05:55:48.441Z,8.57
2022-12-18T05:58:19.591Z,8.03
2022-12-18T06:00:50.927Z,9.03
2022-12-18T06:03:23.192Z,9.90
2022-12-18T06:05:52.597Z,8.63
2022-12-18T06:08:21.233Z,7.57
2022-12-18T06:10:56.456Z,10.63
2022-12-18T06:13:24.635Z,9.97
2022-12-18T06:15:54.247Z,10.33
2022-12-18T06:18:22.374Z,8.47
2022-12-18T06:20:57.710Z,8.80
2022-12-18T06:23:29.379Z,10.20
2022-12-18T06:26:00.973Z,8.83
2022-12-18T06:28:29.777Z,10.13
2022-12-18T06:31:02.182Z,9.30
2022-12-18T06:33:31.839Z,9.17
2022-12-18T06:36:12.235Z,10.20
2022-12-18T06:38:58.998Z,9.10
2022-12-18T06:41:27.285Z,10.90
2022-12-18T06:43:59.943Z,9.50
2022-12-18T06:46:30.287Z,86.37
2022-12-18T06:48:59.543Z,92.43
2022-12-18T06:51:27.691Z,41.20
2022-12-18T06:53:55.730Z,25.77
2022-12-18T06:56:26.005Z,19.50
2022-12-18T06:58:54.238Z,13.87
2022-12-18T07:01:23.978Z,11.17
2022-12-18T07:03:57.954Z,10.77
2022-12-18T07:06:27.784Z,11.00
2022-12-18T07:08:59.009Z,9.10
2022-12-18T07:11:27.152Z,9.03
2022-12-18T07:13:55.853Z,9.60
2022-12-18T07:16:25.829Z,8.60
2022-12-18T07:18:58.232Z,8.30
2022-12-18T07:21:27.283Z,9.87
2022-12-18T07:23:55.653Z,9.03
2022-12-18T07:26:24.486Z,9.30
2022-12-18T07:28:52.729Z,9.43
2022-12-18T07:31:22.883Z,9.00
2022-12-18T07:33:52.239Z,9.57
2022-12-18T07:36:25.211Z,10.87
2022-12-18T07:38:53.949Z,31.77
2022-12-18T07:41:22.835Z,54.40
2022-12-18T07:43:51.026Z,43.67
2022-12-18T07:46:19.416Z,28.07
2022-12-18T07:48:49.389Z,17.73
2022-12-18T07:51:19.446Z,14.23
2022-12-18T07:53:52.642Z,15.37
2022-12-18T07:56:27.715Z,9.80
2022-12-18T07:58:58.681Z,9.47
2022-12-18T08:01:27.459Z,9.13
2022-12-18T08:03:55.879Z,8.93
2022-12-18T08:06:24.848Z,11.50
2022-12-18T08:08:55.939Z,9.97
2022-12-18T08:11:27.091Z,9.40
2022-12-18T08:13:55.606Z,9.10
2022-12-18T08:16:24.403Z,9.10
2022-12-18T08:18:54.405Z,12.93
2022-12-18T08:21:24.841Z,10.07
2022-12-18T08:23:56.131Z,10.37
2022-12-18T08:26:25.253Z,11.93
2022-12-18T08:28:53.713Z,13.80
2022-12-18T08:31:22.190Z,36.93
2022-12-18T08:33:53.208Z,40.07
2022-12-18T08:36:22.507Z,23.67
2022-12-18T08:38:50.803Z,16.70
2022-12-18T08:41:21.447Z,13.43
2022-12-18T08:44:07.314Z,11.00
2022-12-18T08:46:37.996Z,9.63
2022-12-18T08:49:07.446Z,9.90
2022-12-18T08:51:36.509Z,9.90
2022-12-18T08:54:06.548Z,10.37
2022-12-18T08:56:36.445Z,10.40
2022-12-18T08:59:05.246Z,10.00
2022-12-18T09:01:33.464Z,11.43
2022-12-18T09:04:02.540Z,9.00
2022-12-18T09:06:30.769Z,10.20
2022-12-18T09:09:01.488Z,10.57
2022-12-18T09:11:31.362Z,11.60
2022-12-18T09:14:02.844Z,9.77
2022-12-18T09:16:32.548Z,10.67
2022-12-18T09:19:16.865Z,9.40
2022-12-18T09:21:48.231Z,10.50
2022-12-18T09:24:17.331Z,46.93
2022-12-18T09:26:47.306Z,173.13
2022-12-18T09:29:18.913Z,58.43
2022-12-18T09:31:47.852Z,35.17
2022-12-18T09:34:16.078Z,21.70
2022-12-18T09:36:44.449Z,17.63
2022-12-18T09:39:12.684Z,13.73
2022-12-18T09:41:48.286Z,11.00
2022-12-18T09:44:27.150Z,10.53
2022-12-18T09:47:10.538Z,8.90
2022-12-18T09:49:44.561Z,10.43
2022-12-18T09:52:19.477Z,8.50
2022-12-18T09:54:52.244Z,9.87
2022-12-18T09:57:22.836Z,10.63
2022-12-18T09:59:59.269Z,9.87
2022-12-18T10:02:28.873Z,12.20
2022-12-18T10:05:06.342Z,10.80
2022-12-18T10:07:55.423Z,10.90
2022-12-18T10:10:30.827Z,10.47
2022-12-18T10:13:10.680Z,12.10
2022-12-18T10:15:50.996Z,11.43
2022-12-18T10:18:29.015Z,33.50
2022-12-18T10:21:01.851Z,41.83
2022-12-18T10:23:35.728Z,23.80
2022-12-18T10:26:06.167Z,18.93
2022-12-18T10:28:40.230Z,14.03
2022-12-18T10:31:17.126Z,12.40
2022-12-18T10:33:46.255Z,10.83
2022-12-18T10:36:14.913Z,9.93
2022-12-18T10:38:43.910Z,11.77
2022-12-18T10:41:27.855Z,12.27
2022-12-18T10:44:17.858Z,13.10
2022-12-18T10:46:48.846Z,9.83
2022-12-18T10:49:25.832Z,9.67
2022-12-18T10:52:06.099Z,10.63
2022-12-18T10:54:37.000Z,10.40
2022-12-18T10:57:19.646Z,11.03
2022-12-18T10:59:55.829Z,12.73
2022-12-18T11:02:37.668Z,11.87
2022-12-18T11:05:26.613Z,11.20
2022-12-18T11:07:55.809Z,11.73
2022-12-18T11:10:28.331Z,10.90
2022-12-18T11:12:58.427Z,10.40
2022-12-18T11:15:31.539Z,9.80
2022-12-18T11:18:01.310Z,12.63
2022-12-18T11:20:34.471Z,11.10
2022-12-18T11:23:05.670Z,10.17
2022-12-18T11:25:36.143Z,11.77
2022-12-18T11:28:06.428Z,11.97
2022-12-18T11:30:36.222Z,21.50
2022-12-18T11:33:11.567Z,50.87
2022-12-18T11:35:46.610Z,28.83
2022-12-18T11:38:25.148Z,21.07
2022-12-18T11:40:58.535Z,15.27
2022-12-18T11:43:31.682Z,11.87
2022-12-18T11:46:06.084Z,11.30
2022-12-18T11:48:43.496Z,12.40
2022-12-18T11:51:16.828Z,14.53
2022-12-18T11:53:45.247Z,13.87
2022-12-18T11:56:29.684Z,11.17
2022-12-18T11:59:08.931Z,13.50
2022-12-18T12:01:51.073Z,12.73
2022-12-18T12:04:49.111Z,11.77
2022-12-18T12:07:31.369Z,12.70
2022-12-18T12:10:08.870Z,11.83
2022-12-18T12:12:51.076Z,12.50
2022-12-18T12:15:32.094Z,11.90
2022-12-18T12:18:11.451Z,12.83
2022-12-18T12:20:51.597Z,9.97
2022-12-18T12:23:30.382Z,13.37
2022-12-18T12:26:03.782Z,11.47
2022-12-18T12:28:59.369Z,13.23
2022-12-18T12:31:53.135Z,12.33
2022-12-18T12:34:25.206Z,30.13
2022-12-18T12:37:11.535Z,38.43
2022-12-18T12:39:42.794Z,31.67
2022-12-18T12:42:36.748Z,21.63
2022-12-18T12:45:08.980Z,15.50
2022-12-18T12:47:42.812Z,13.00
2022-12-18T12:50:16.672Z,14.73
2022-12-18T12:52:51.601Z,14.80
2022-12-18T12:55:23.097Z,13.33
2022-12-18T12:58:01.648Z,14.77
2022-12-18T13:00:37.356Z,15.40
2022-12-18T13:03:14.226Z,14.40
2022-12-18T13:05:48.641Z,13.10
2022-12-18T13:08:28.744Z,13.77
2022-12-18T13:11:14.916Z,15.63
2022-12-18T13:13:51.853Z,13.80
2022-12-18T13:16:23.017Z,12.63
2022-12-18T13:18:52.318Z,15.90
2022-12-18T13:21:28.158Z,14.67
2022-12-18T13:23:58.664Z,15.87
2022-12-18T13:26:35.201Z,14.90
2022-12-18T13:29:05.285Z,14.70
2022-12-18T13:32:09.798Z,14.03
2022-12-18T13:34:38.524Z,15.10
2022-12-18T13:37:42.970Z,13.30
2022-12-18T13:40:57.536Z,16.73
2022-12-18T13:43:44.349Z,16.80
2022-12-18T13:46:25.388Z,14.30
2022-12-18T13:49:00.061Z,14.87
2022-12-18T13:51:29.443Z,14.03
2022-12-18T13:54:00.906Z,16.20
2022-12-18T13:56:32.841Z,14.17
2022-12-18T13:59:24.780Z,18.27
2022-12-18T14:01:57.368Z,18.10
2022-12-18T14:04:29.086Z,19.60
2022-12-18T14:07:00.925Z,25.73
2022-12-18T14:09:32.503Z,42.90
2022-12-18T14:12:20.053Z,33.87
2022-12-18T14:14:53.085Z,21.20
2022-12-18T14:17:24.898Z,19.10
2022-12-18T14:19:53.794Z,16.37
2022-12-18T14:22:28.596Z,17.53
2022-12-18T14:25:17.165Z,16.37
2022-12-18T14:27:48.496Z,15.33
2022-12-18T14:30:33.012Z,15.40
2022-12-18T14:33:05.770Z,17.40
2022-12-18T14:35:33.997Z,15.20
2022-12-18T14:38:23.697Z,16.77
2022-12-18T14:40:57.835Z,16.83
2022-12-18T14:43:26.139Z,15.73
2022-12-18T14:45:56.468Z,18.10
2022-12-18T14:48:35.648Z,15.60
2022-12-18T14:51:06.583Z,14.57
2022-12-18T14:53:39.215Z,15.83
2022-12-18T14:56:17.687Z,15.00
2022-12-18T14:58:50.756Z,19.13
2022-12-18T15:01:26.201Z,14.57
2022-12-18T15:03:56.387Z,15.27
2022-12-18T15:06:32.888Z,16.90
2022-12-18T15:09:02.428Z,18.80
2022-12-18T15:11:36.774Z,16.63
2022-12-18T15:14:32.080Z,16.43
2022-12-18T15:17:02.705Z,15.87
2022-12-18T15:19:39.376Z,15.33
2022-12-18T15:22:20.906Z,15.47
2022-12-18T15:24:51.283Z,19.13
2022-12-18T15:27:29.409Z,27.00
2022-12-18T15:30:17.508Z,22.83
2022-12-18T15:32:48.109Z,21.33
2022-12-18T15:35:18.853Z,18.43
2022-12-18T15:37:47.475Z,17.07
2022-12-18T15:40:17.445Z,17.33
2022-12-18T15:43:04.173Z,17.00
2022-12-18T15:45:32.359Z,16.03
2022-12-18T15:48:02.199Z,18.50
2022-12-18T15:50:30.774Z,19.40
2022-12-18T15:52:59.158Z,21.60
2022-12-18T15:55:44.706Z,19.13
2022-12-18T15:58:13.233Z,18.27
2022-12-18T16:00:43.519Z,18.77
2022-12-18T16:03:17.355Z,72.60
2022-12-18T16:05:45.644Z,75.87
2022-12-18T16:08:13.811Z,38.07
2022-12-18T16:10:42.232Z,29.90
2022-12-18T16:13:12.770Z,21.13
2022-12-18T16:15:41.067Z,19.00
2022-12-18T16:18:11.374Z,18.73
2022-12-18T16:20:41.331Z,21.60
2022-12-18T16:23:11.545Z,19.33
2022-12-18T16:25:39.961Z,19.97
2022-12-18T16:28:08.092Z,18.60
2022-12-18T16:30:38.636Z,16.67
2022-12-18T16:33:07.658Z,17.83
2022-12-18T16:35:38.149Z,18.20
2022-12-18T16:38:07.799Z,21.57
2022-12-18T16:40:56.011Z,19.40
2022-12-18T16:43:24.190Z,18.77
2022-12-18T16:45:52.565Z,19.63
2022-12-18T16:48:20.732Z,21.40
2022-12-18T16:50:48.810Z,20.87
2022-12-18T16:53:18.470Z,18.17
2022-12-18T16:55:46.649Z,22.50
2022-12-18T16:58:14.833Z,21.53
2022-12-18T17:00:42.999Z,22.10
2022-12-18T17:03:13.692Z,20.97
2022-12-18T17:05:42.013Z,19.10
2022-12-18T17:08:10.353Z,21.53
2022-12-18T17:10:40.027Z,17.70
2022-12-18T17:13:08.313Z,20.90
2022-12-18T17:15:37.244Z,20.63
2022-12-18T17:18:05.662Z,19.53
2022-12-18T17:20:33.915Z,20.90
2022-12-18T17:23:02.184Z,19.33
2022-12-18T17:25:31.180Z,21.87
2022-12-18T17:28:01.029Z,19.50
2022-12-18T17:30:30.624Z,21.20
2022-12-18T17:32:58.751Z,21.50
2022-12-18T17:35:27.143Z,20.13
2022-12-18T17:37:55.369Z,22.93
2022-12-18T17:40:24.262Z,25.00
2022-12-18T17:42:54.333Z,23.60
2022-12-18T17:45:24.371Z,22.07
2022-12-18T17:47:58.257Z,70.67
2022-12-18T17:50:28.084Z,45.10
2022-12-18T17:52:57.554Z,28.57
2022-12-18T17:55:25.910Z,27.30
2022-12-18T17:57:54.983Z,22.70
2022-12-18T18:00:24.588Z,20.47
2022-12-18T18:02:53.045Z,22.90
2022-12-18T18:05:21.470Z,22.10
2022-12-18T18:07:50.781Z,23.30
2022-12-18T18:10:22.919Z,22.23
2022-12-18T18:13:08.668Z,22.40
2022-12-18T18:15:38.234Z,22.43
2022-12-18T18:18:11.369Z,22.07
2022-12-18T18:20:41.556Z,20.03
2022-12-18T18:23:10.674Z,23.07
2022-12-18T18:25:39.445Z,21.30
2022-12-18T18:28:09.683Z,22.23
2022-12-18T18:30:39.615Z,26.27
2022-12-18T18:33:12.104Z,26.57
2022-12-18T18:35:53.885Z,21.33
2022-12-18T18:38:22.247Z,23.33
2022-12-18T18:40:50.515Z,26.17
2022-12-18T18:43:19.923Z,22.30
2022-12-18T18:45:49.527Z,23.67
2022-12-18T18:48:18.424Z,20.90
2022-12-18T18:50:56.319Z,56.70
2022-12-18T18:53:24.614Z,50.43
2022-12-18T18:56:17.506Z,40.17
2022-12-18T18:58:41.599Z,28.97
2022-12-18T19:01:13.568Z,26.10
2022-12-18T19:03:42.490Z,24.93
2022-12-18T19:06:15.929Z,22.73
2022-12-18T19:08:44.757Z,25.33
2022-12-18T19:11:31.750Z,28.30
2022-12-18T19:14:05.569Z,28.53
2022-12-18T19:16:36.042Z,30.93
2022-12-18T19:19:05.588Z,25.17
2022-12-18T19:21:34.365Z,27.17
2022-12-18T19:24:03.527Z,24.37
2022-12-18T19:26:31.833Z,25.30
2022-12-18T19:29:03.271Z,24.27
2022-12-18T19:31:35.696Z,25.47
2022-12-18T19:34:07.739Z,23.90
2022-12-18T19:36:37.308Z,22.87
2022-12-18T19:39:12.189Z,26.00
2022-12-18T19:41:40.444Z,28.30
2022-12-18T19:44:08.932Z,22.53
2022-12-18T19:46:38.869Z,26.40
2022-12-18T19:49:13.609Z,27.60
2022-12-18T19:51:46.309Z,26.90
2022-12-18T19:54:17.366Z,26.83
2022-12-18T19:56:46.899Z,22.60
2022-12-18T19:59:15.265Z,28.07
2022-12-18T20:01:43.789Z,25.87
2022-12-18T20:04:13.737Z,25.00
2022-12-18T20:06:49.296Z,25.23
2022-12-18T20:09:18.574Z,28.13
2022-12-18T20:11:47.998Z,28.10
2022-12-18T20:14:22.993Z,28.60
2022-12-18T20:16:53.045Z,28.10
2022-12-18T20:19:23.503Z,27.07
2022-12-18T20:21:52.619Z,26.20
2022-12-18T20:24:23.563Z,28.17
2022-12-18T20:26:51.930Z,24.73
2022-12-18T20:29:22.316Z,25.43
2022-12-18T20:31:50.783Z,24.37
2022-12-18T20:34:21.066Z,27.27
2022-12-18T20:36:51.127Z,25.27
2022-12-18T20:39:19.705Z,25.93
2022-12-18T20:41:49.517Z,28.77
2022-12-18T20:44:23.134Z,24.70
2022-12-18T20:46:56.386Z,28.90
2022-12-18T20:49:28.901Z,26.43
2022-12-18T20:51:59.919Z,26.20
2022-12-18T20:54:31.548Z,27.37
2022-12-18T20:57:06.754Z,26.97
2022-12-18T20:59:37.571Z,28.57
2022-12-18T21:02:10.791Z,26.27
2022-12-18T21:04:44.419Z,26.23
2022-12-18T21:07:19.627Z,29.53
2022-12-18T21:09:48.153Z,29.73
2022-12-18T21:12:49.659Z,28.43
2022-12-18T21:15:32.316Z,29.93
2022-12-18T21:18:02.525Z,28.00
2022-12-18T21:20:37.454Z,25.97
2022-12-18T21:23:16.677Z,26.40
2022-12-18T21:25:45.828Z,27.03
2022-12-18T21:28:16.123Z,25.33
2022-12-18T21:30:44.693Z,27.10
2022-12-18T21:33:13.058Z,30.37
2022-12-18T21:35:41.307Z,26.77
2022-12-18T21:38:11.030Z,26.03
2022-12-18T21:40:40.567Z,27.67
2022-12-18T21:43:28.505Z,28.50
2022-12-18T21:45:58.209Z,25.60
2022-12-18T21:48:31.030Z,26.93
2022-12-18T21:50:59.185Z,25.50
2022-12-18T21:53:28.766Z,29.63
2022-12-18T21:55:59.459Z,27.27
2022-12-18T21:58:27.742Z,27.70
2022-12-18T22:00:56.185Z,27.63
2022-12-18T22:03:26.279Z,25.63
2022-12-18T22:06:09.283Z,25.80
2022-12-18T22:08:43.543Z,25.30
2022-12-18T22:11:14.340Z,27.00
2022-12-18T22:13:44.116Z,27.17
2022-12-18T22:16:12.629Z,29.83
2022-12-18T22:18:40.790Z,25.57
2022-12-18T22:21:12.021Z,25.67
2022-12-18T22:23:41.657Z,28.00
2022-12-18T22:26:10.777Z,26.83
2022-12-18T22:28:56.711Z,25.90
2022-12-18T22:31:25.031Z,26.73
2022-12-18T22:33:53.200Z,26.27
2022-12-18T22:36:21.387Z,28.20
2022-12-18T22:38:53.340Z,25.77
2022-12-18T22:41:21.921Z,25.80
2022-12-18T22:43:50.034Z,24.40
2022-12-18T22:46:25.911Z,24.53
2022-12-18T22:48:54.509Z,26.70
2022-12-18T22:51:23.002Z,26.17
2022-12-18T22:53:53.061Z,28.30
2022-12-18T22:56:23.243Z,28.37
2022-12-18T22:58:52.373Z,28.07
2022-12-18T23:01:23.395Z,26.93
2022-12-18T23:03:52.640Z,28.70
2022-12-18T23:06:21.900Z,30.50
2022-12-18T23:08:56.007Z,26.20
2022-12-18T23:11:24.988Z,33.10
2022-12-18T23:13:55.104Z,25.07
2022-12-18T23:16:26.771Z,24.57
2022-12-18T23:18:55.931Z,25.67
2022-12-18T23:21:27.367Z,27.63
2022-12-18T23:23:57.064Z,27.97
2022-12-18T23:26:27.950Z,27.10
2022-12-18T23:28:57.373Z,26.70
2022-12-18T23:31:30.762Z,27.50
2022-12-18T23:34:01.376Z,28.10
2022-12-18T23:36:30.113Z,29.90
2022-12-18T23:39:03.062Z,27.00
2022-12-18T23:41:32.730Z,24.07
2022-12-18T23:44:01.736Z,28.23
2022-12-18T23:46:31.917Z,28.03
2022-12-18T23:49:03.552Z,29.03
2022-12-18T23:51:34.165Z,28.93
2022-12-18T23:54:05.643Z,28.13
2022-12-18T23:56:35.656Z,27.37
2022-12-18T23:59:03.847Z,25.90
